sensor_id;sensor_type;location;lat;lon;timestamp;P1;durP1;ratioP1;P2;durP2;ratioP2
20721;SDS011;10522;52.198;9.890;2023-03-14T00:02:18;3.13;;;1.40;;
20721;SDS011;10522;52.198;9.890;2023-03-14T00:04:44;3.03;;;1.30;;
20721;SDS011;10522;52.198;9.890;2023-03-14T00:07:10;1.97;;;1.13;;
20721;SDS011;10522;52.198;9.890;2023-03-14T00:09:36;2.07;;;1.40;;
20721;SDS011;10522;52.198;9.890;2023-03-14T00:12:02;2.93;;;1.20;;
20721;SDS011;10522;52.198;9.890;2023-03-14T00:14:28;3.00;;;1.20;;
20721;SDS011;10522;52.198;9.890;2023-03-14T00:16:54;1.53;;;1.00;;
20721;SDS011;10522;52.198;9.890;2023-03-14T00:19:20;3.67;;;1.50;;
20721;SDS011;10522;52.198;9.890;2023-03-14T00:21:46;1.33;;;1.20;;
20721;SDS011;10522;52.198;9.890;2023-03-14T00:24:12;2.60;;;1.60;;
20721;SDS011;10522;52.198;9.890;2023-03-14T00:26:37;4.23;;;1.10;;
20721;SDS011;10522;52.198;9.890;2023-03-14T00:29:03;4.10;;;1.53;;
20721;SDS011;10522;52.198;9.890;2023-03-14T00:31:28;2.60;;;1.33;;
20721;SDS011;10522;52.198;9.890;2023-03-14T00:33:54;2.37;;;1.50;;
20721;SDS011;10522;52.198;9.890;2023-03-14T00:36:20;1.90;;;1.30;;
20721;SDS011;10522;52.198;9.890;2023-03-14T00:38:47;1.93;;;1.47;;
20721;SDS011;10522;52.198;9.890;2023-03-14T00:41:15;2.77;;;1.00;;
20721;SDS011;10522;52.198;9.890;2023-03-14T00:43:47;4.03;;;1.43;;
20721;SDS011;10522;52.198;9.890;2023-03-14T00:46:12;1.97;;;1.20;;
20721;SDS011;10522;52.198;9.890;2023-03-14T00:48:38;3.50;;;1.50;;
20721;SDS011;10522;52.198;9.890;2023-03-14T00:51:04;3.20;;;1.10;;
20721;SDS011;10522;52.198;9.890;2023-03-14T00:53:31;2.50;;;1.27;;
20721;SDS011;10522;52.198;9.890;2023-03-14T00:56:05;4.03;;;1.13;;
20721;SDS011;10522;52.198;9.890;2023-03-14T00:58:33;2.63;;;1.17;;
20721;SDS011;10522;52.198;9.890;2023-03-14T01:00:58;2.83;;;1.00;;
20721;SDS011;10522;52.198;9.890;2023-03-14T01:03:24;2.53;;;1.40;;
20721;SDS011;10522;52.198;9.890;2023-03-14T01:05:50;4.57;;;1.23;;
20721;SDS011;10522;52.198;9.890;2023-03-14T01:08:16;2.93;;;1.50;;
20721;SDS011;10522;52.198;9.890;2023-03-14T01:10:42;3.00;;;1.43;;
20721;SDS011;10522;52.198;9.890;2023-03-14T01:13:08;2.33;;;1.10;;
20721;SDS011;10522;52.198;9.890;2023-03-14T01:15:35;3.77;;;1.87;;
20721;SDS011;10522;52.198;9.890;2023-03-14T01:18:01;4.73;;;1.30;;
20721;SDS011;10522;52.198;9.890;2023-03-14T01:20:27;7.90;;;1.60;;
20721;SDS011;10522;52.198;9.890;2023-03-14T01:22:53;4.70;;;1.47;;
20721;SDS011;10522;52.198;9.890;2023-03-14T01:25:18;3.27;;;1.40;;
20721;SDS011;10522;52.198;9.890;2023-03-14T01:27:44;2.97;;;1.47;;
20721;SDS011;10522;52.198;9.890;2023-03-14T01:30:11;4.23;;;1.20;;
20721;SDS011;10522;52.198;9.890;2023-03-14T01:32:37;4.80;;;1.17;;
20721;SDS011;10522;52.198;9.890;2023-03-14T01:35:04;2.83;;;1.13;;
20721;SDS011;10522;52.198;9.890;2023-03-14T01:37:30;2.67;;;1.30;;
20721;SDS011;10522;52.198;9.890;2023-03-14T01:39:55;2.67;;;1.07;;
20721;SDS011;10522;52.198;9.890;2023-03-14T01:42:21;5.33;;;1.27;;
20721;SDS011;10522;52.198;9.890;2023-03-14T01:47:16;2.13;;;1.23;;
20721;SDS011;10522;52.198;9.890;2023-03-14T01:49:42;3.00;;;1.30;;
20721;SDS011;10522;52.198;9.890;2023-03-14T01:52:16;4.23;;;1.20;;
20721;SDS011;10522;52.198;9.890;2023-03-14T01:54:48;3.03;;;1.30;;
20721;SDS011;10522;52.198;9.890;2023-03-14T01:57:24;4.00;;;1.47;;
20721;SDS011;10522;52.198;9.890;2023-03-14T01:59:59;3.13;;;1.10;;
20721;SDS011;10522;52.198;9.890;2023-03-14T02:02:29;1.43;;;0.90;;
20721;SDS011;10522;52.198;9.890;2023-03-14T02:04:55;4.27;;;1.20;;
20721;SDS011;10522;52.198;9.890;2023-03-14T02:07:23;2.73;;;1.00;;
20721;SDS011;10522;52.198;9.890;2023-03-14T02:09:50;3.20;;;1.17;;
20721;SDS011;10522;52.198;9.890;2023-03-14T02:12:17;4.00;;;1.37;;
20721;SDS011;10522;52.198;9.890;2023-03-14T02:14:45;2.60;;;1.20;;
20721;SDS011;10522;52.198;9.890;2023-03-14T02:17:13;3.13;;;1.10;;
20721;SDS011;10522;52.198;9.890;2023-03-14T02:22:19;3.73;;;1.10;;
20721;SDS011;10522;52.198;9.890;2023-03-14T02:25:01;2.07;;;0.93;;
20721;SDS011;10522;52.198;9.890;2023-03-14T02:27:47;4.73;;;1.63;;
20721;SDS011;10522;52.198;9.890;2023-03-14T02:32:41;4.90;;;2.07;;
20721;SDS011;10522;52.198;9.890;2023-03-14T02:35:12;2.40;;;1.20;;
20721;SDS011;10522;52.198;9.890;2023-03-14T02:40:25;5.07;;;1.00;;
20721;SDS011;10522;52.198;9.890;2023-03-14T02:42:51;5.73;;;1.50;;
20721;SDS011;10522;52.198;9.890;2023-03-14T02:47:43;2.77;;;1.30;;
20721;SDS011;10522;52.198;9.890;2023-03-14T02:50:13;3.13;;;1.03;;
20721;SDS011;10522;52.198;9.890;2023-03-14T02:52:44;4.10;;;1.33;;
20721;SDS011;10522;52.198;9.890;2023-03-14T02:55:09;3.03;;;1.03;;
20721;SDS011;10522;52.198;9.890;2023-03-14T02:57:35;6.63;;;1.30;;
20721;SDS011;10522;52.198;9.890;2023-03-14T03:00:01;6.93;;;1.20;;
20721;SDS011;10522;52.198;9.890;2023-03-14T03:02:29;7.57;;;1.60;;
20721;SDS011;10522;52.198;9.890;2023-03-14T03:04:55;3.60;;;1.20;;
20721;SDS011;10522;52.198;9.890;2023-03-14T03:07:20;9.50;;;1.47;;
20721;SDS011;10522;52.198;9.890;2023-03-14T03:09:46;4.83;;;1.47;;
20721;SDS011;10522;52.198;9.890;2023-03-14T03:12:12;4.00;;;1.33;;
20721;SDS011;10522;52.198;9.890;2023-03-14T03:14:37;5.57;;;1.10;;
20721;SDS011;10522;52.198;9.890;2023-03-14T03:17:06;2.57;;;1.00;;
20721;SDS011;10522;52.198;9.890;2023-03-14T03:19:32;2.00;;;1.10;;
20721;SDS011;10522;52.198;9.890;2023-03-14T03:21:58;7.27;;;1.50;;
20721;SDS011;10522;52.198;9.890;2023-03-14T03:24:25;1.67;;;0.87;;
20721;SDS011;10522;52.198;9.890;2023-03-14T03:26:51;4.53;;;1.10;;
20721;SDS011;10522;52.198;9.890;2023-03-14T03:29:16;5.70;;;1.40;;
20721;SDS011;10522;52.198;9.890;2023-03-14T03:31:42;3.83;;;1.20;;
20721;SDS011;10522;52.198;9.890;2023-03-14T03:34:10;6.77;;;1.50;;
20721;SDS011;10522;52.198;9.890;2023-03-14T03:36:36;4.50;;;1.20;;
20721;SDS011;10522;52.198;9.890;2023-03-14T03:39:02;5.87;;;1.37;;
20721;SDS011;10522;52.198;9.890;2023-03-14T03:41:28;4.77;;;0.90;;
20721;SDS011;10522;52.198;9.890;2023-03-14T03:43:54;4.07;;;1.00;;
20721;SDS011;10522;52.198;9.890;2023-03-14T03:46:20;2.73;;;1.00;;
20721;SDS011;10522;52.198;9.890;2023-03-14T03:48:46;5.23;;;0.93;;
20721;SDS011;10522;52.198;9.890;2023-03-14T03:51:15;4.60;;;1.83;;
20721;SDS011;10522;52.198;9.890;2023-03-14T03:53:41;4.13;;;1.30;;
20721;SDS011;10522;52.198;9.890;2023-03-14T03:56:08;3.23;;;1.77;;
20721;SDS011;10522;52.198;9.890;2023-03-14T03:58:34;5.13;;;1.23;;
20721;SDS011;10522;52.198;9.890;2023-03-14T04:01:00;4.10;;;1.00;;
20721;SDS011;10522;52.198;9.890;2023-03-14T04:03:25;1.90;;;0.97;;
20721;SDS011;10522;52.198;9.890;2023-03-14T04:06:03;4.33;;;1.00;;
20721;SDS011;10522;52.198;9.890;2023-03-14T04:08:31;3.13;;;1.17;;
20721;SDS011;10522;52.198;9.890;2023-03-14T04:10:57;2.97;;;0.50;;
20721;SDS011;10522;52.198;9.890;2023-03-14T04:13:24;1.00;;;0.60;;
20721;SDS011;10522;52.198;9.890;2023-03-14T04:15:50;1.67;;;0.57;;
20721;SDS011;10522;52.198;9.890;2023-03-14T04:18:16;2.47;;;0.60;;
20721;SDS011;10522;52.198;9.890;2023-03-14T04:20:42;0.43;;;0.33;;
20721;SDS011;10522;52.198;9.890;2023-03-14T04:23:08;2.53;;;0.60;;
20721;SDS011;10522;52.198;9.890;2023-03-14T04:25:34;2.77;;;0.50;;
20721;SDS011;10522;52.198;9.890;2023-03-14T04:27:59;0.83;;;0.47;;
20721;SDS011;10522;52.198;9.890;2023-03-14T04:30:25;0.40;;;0.40;;
20721;SDS011;10522;52.198;9.890;2023-03-14T04:32:51;2.10;;;0.40;;
20721;SDS011;10522;52.198;9.890;2023-03-14T04:35:16;0.20;;;0.20;;
20721;SDS011;10522;52.198;9.890;2023-03-14T04:37:42;0.50;;;0.40;;
20721;SDS011;10522;52.198;9.890;2023-03-14T04:40:08;0.53;;;0.30;;
20721;SDS011;10522;52.198;9.890;2023-03-14T04:42:35;0.57;;;0.40;;
20721;SDS011;10522;52.198;9.890;2023-03-14T04:45:01;2.00;;;0.50;;
20721;SDS011;10522;52.198;9.890;2023-03-14T04:47:26;2.47;;;0.43;;
20721;SDS011;10522;52.198;9.890;2023-03-14T04:49:52;2.43;;;0.60;;
20721;SDS011;10522;52.198;9.890;2023-03-14T04:52:18;1.17;;;0.50;;
20721;SDS011;10522;52.198;9.890;2023-03-14T04:54:44;2.23;;;0.73;;
20721;SDS011;10522;52.198;9.890;2023-03-14T04:57:09;1.03;;;0.43;;
20721;SDS011;10522;52.198;9.890;2023-03-14T04:59:35;3.10;;;0.93;;
20721;SDS011;10522;52.198;9.890;2023-03-14T05:02:00;2.63;;;0.97;;
20721;SDS011;10522;52.198;9.890;2023-03-14T05:04:26;0.60;;;0.60;;
20721;SDS011;10522;52.198;9.890;2023-03-14T05:06:51;5.50;;;1.10;;
20721;SDS011;10522;52.198;9.890;2023-03-14T05:09:17;2.53;;;0.90;;
20721;SDS011;10522;52.198;9.890;2023-03-14T05:11:43;2.67;;;0.80;;
20721;SDS011;10522;52.198;9.890;2023-03-14T05:14:08;5.87;;;1.20;;
20721;SDS011;10522;52.198;9.890;2023-03-14T05:16:34;3.93;;;1.20;;
20721;SDS011;10522;52.198;9.890;2023-03-14T05:18:59;2.70;;;1.53;;
20721;SDS011;10522;52.198;9.890;2023-03-14T05:21:26;2.70;;;1.10;;
20721;SDS011;10522;52.198;9.890;2023-03-14T05:23:52;2.70;;;0.87;;
20721;SDS011;10522;52.198;9.890;2023-03-14T05:26:17;2.43;;;1.03;;
20721;SDS011;10522;52.198;9.890;2023-03-14T05:28:43;5.07;;;1.00;;
20721;SDS011;10522;52.198;9.890;2023-03-14T05:31:09;3.30;;;0.80;;
20721;SDS011;10522;52.198;9.890;2023-03-14T05:33:35;1.23;;;0.50;;
20721;SDS011;10522;52.198;9.890;2023-03-14T05:36:00;1.00;;;0.63;;
20721;SDS011;10522;52.198;9.890;2023-03-14T05:38:26;5.10;;;0.83;;
20721;SDS011;10522;52.198;9.890;2023-03-14T05:40:52;2.80;;;0.80;;
20721;SDS011;10522;52.198;9.890;2023-03-14T05:43:17;8.43;;;1.90;;
20721;SDS011;10522;52.198;9.890;2023-03-14T05:45:43;2.20;;;0.80;;
20721;SDS011;10522;52.198;9.890;2023-03-14T05:48:08;5.33;;;1.00;;
20721;SDS011;10522;52.198;9.890;2023-03-14T05:50:34;3.07;;;0.90;;
20721;SDS011;10522;52.198;9.890;2023-03-14T05:53:00;2.97;;;0.67;;
20721;SDS011;10522;52.198;9.890;2023-03-14T05:55:25;5.07;;;1.00;;
20721;SDS011;10522;52.198;9.890;2023-03-14T05:57:52;6.40;;;1.10;;
20721;SDS011;10522;52.198;9.890;2023-03-14T06:00:18;4.03;;;1.07;;
20721;SDS011;10522;52.198;9.890;2023-03-14T06:02:44;3.13;;;1.23;;
20721;SDS011;10522;52.198;9.890;2023-03-14T06:05:10;1.70;;;1.27;;
20721;SDS011;10522;52.198;9.890;2023-03-14T06:07:36;3.30;;;0.80;;
20721;SDS011;10522;52.198;9.890;2023-03-14T06:10:02;2.90;;;1.27;;
20721;SDS011;10522;52.198;9.890;2023-03-14T06:12:28;3.37;;;1.00;;
20721;SDS011;10522;52.198;9.890;2023-03-14T06:14:54;3.07;;;0.83;;
20721;SDS011;10522;52.198;9.890;2023-03-14T06:17:19;3.33;;;1.27;;
20721;SDS011;10522;52.198;9.890;2023-03-14T06:19:45;2.27;;;0.80;;
20721;SDS011;10522;52.198;9.890;2023-03-14T06:22:11;2.97;;;0.67;;
20721;SDS011;10522;52.198;9.890;2023-03-14T06:24:36;4.93;;;0.80;;
20721;SDS011;10522;52.198;9.890;2023-03-14T06:27:02;2.70;;;0.90;;
20721;SDS011;10522;52.198;9.890;2023-03-14T06:29:28;5.13;;;0.77;;
20721;SDS011;10522;52.198;9.890;2023-03-14T06:31:54;2.97;;;0.90;;
20721;SDS011;10522;52.198;9.890;2023-03-14T06:34:20;5.00;;;0.70;;
20721;SDS011;10522;52.198;9.890;2023-03-14T06:36:45;2.83;;;0.90;;
20721;SDS011;10522;52.198;9.890;2023-03-14T06:39:11;4.23;;;1.00;;
20721;SDS011;10522;52.198;9.890;2023-03-14T06:41:37;3.90;;;0.83;;
20721;SDS011;10522;52.198;9.890;2023-03-14T06:44:02;1.30;;;0.60;;
20721;SDS011;10522;52.198;9.890;2023-03-14T06:46:28;2.80;;;1.00;;
20721;SDS011;10522;52.198;9.890;2023-03-14T06:48:54;3.60;;;0.80;;
20721;SDS011;10522;52.198;9.890;2023-03-14T06:51:20;4.87;;;0.67;;
20721;SDS011;10522;52.198;9.890;2023-03-14T06:53:45;6.67;;;0.80;;
20721;SDS011;10522;52.198;9.890;2023-03-14T06:56:11;2.97;;;1.00;;
20721;SDS011;10522;52.198;9.890;2023-03-14T06:58:36;1.70;;;0.80;;
20721;SDS011;10522;52.198;9.890;2023-03-14T07:01:02;1.87;;;1.20;;
20721;SDS011;10522;52.198;9.890;2023-03-14T07:03:28;4.00;;;0.80;;
20721;SDS011;10522;52.198;9.890;2023-03-14T07:05:54;5.37;;;0.90;;
20721;SDS011;10522;52.198;9.890;2023-03-14T07:08:20;1.90;;;0.50;;
20721;SDS011;10522;52.198;9.890;2023-03-14T07:10:45;1.37;;;0.73;;
20721;SDS011;10522;52.198;9.890;2023-03-14T07:13:11;2.03;;;0.87;;
20721;SDS011;10522;52.198;9.890;2023-03-14T07:15:37;2.60;;;0.87;;
20721;SDS011;10522;52.198;9.890;2023-03-14T07:18:02;3.00;;;0.77;;
20721;SDS011;10522;52.198;9.890;2023-03-14T07:20:29;2.70;;;1.00;;
20721;SDS011;10522;52.198;9.890;2023-03-14T07:22:57;3.17;;;0.90;;
20721;SDS011;10522;52.198;9.890;2023-03-14T07:25:24;5.23;;;0.90;;
20721;SDS011;10522;52.198;9.890;2023-03-14T07:27:50;3.50;;;1.10;;
20721;SDS011;10522;52.198;9.890;2023-03-14T07:30:16;4.13;;;1.10;;
20721;SDS011;10522;52.198;9.890;2023-03-14T07:32:42;4.63;;;0.80;;
20721;SDS011;10522;52.198;9.890;2023-03-14T07:35:07;5.70;;;1.30;;
20721;SDS011;10522;52.198;9.890;2023-03-14T07:37:33;2.57;;;0.90;;
20721;SDS011;10522;52.198;9.890;2023-03-14T07:39:59;2.30;;;0.80;;
20721;SDS011;10522;52.198;9.890;2023-03-14T07:42:24;2.77;;;0.90;;
20721;SDS011;10522;52.198;9.890;2023-03-14T07:44:50;3.30;;;1.10;;
20721;SDS011;10522;52.198;9.890;2023-03-14T07:47:15;6.97;;;1.10;;
20721;SDS011;10522;52.198;9.890;2023-03-14T07:49:41;1.33;;;0.87;;
20721;SDS011;10522;52.198;9.890;2023-03-14T07:52:07;2.70;;;0.90;;
20721;SDS011;10522;52.198;9.890;2023-03-14T07:54:32;2.97;;;1.40;;
20721;SDS011;10522;52.198;9.890;2023-03-14T07:56:58;5.30;;;1.10;;
20721;SDS011;10522;52.198;9.890;2023-03-14T07:59:25;7.10;;;1.40;;
20721;SDS011;10522;52.198;9.890;2023-03-14T08:01:51;3.07;;;0.83;;
20721;SDS011;10522;52.198;9.890;2023-03-14T08:04:17;3.60;;;0.93;;
20721;SDS011;10522;52.198;9.890;2023-03-14T08:06:43;6.03;;;1.30;;
20721;SDS011;10522;52.198;9.890;2023-03-14T08:09:08;4.20;;;1.40;;
20721;SDS011;10522;52.198;9.890;2023-03-14T08:11:34;5.53;;;1.87;;
20721;SDS011;10522;52.198;9.890;2023-03-14T08:13:59;8.80;;;1.37;;
20721;SDS011;10522;52.198;9.890;2023-03-14T08:16:25;3.27;;;1.30;;
20721;SDS011;10522;52.198;9.890;2023-03-14T08:18:51;2.07;;;0.90;;
20721;SDS011;10522;52.198;9.890;2023-03-14T08:21:16;3.30;;;1.00;;
20721;SDS011;10522;52.198;9.890;2023-03-14T08:23:42;4.73;;;1.20;;
20721;SDS011;10522;52.198;9.890;2023-03-14T08:26:07;5.90;;;1.37;;
20721;SDS011;10522;52.198;9.890;2023-03-14T08:28:33;3.07;;;0.73;;
20721;SDS011;10522;52.198;9.890;2023-03-14T08:30:59;2.43;;;0.90;;
20721;SDS011;10522;52.198;9.890;2023-03-14T08:33:26;5.37;;;1.10;;
20721;SDS011;10522;52.198;9.890;2023-03-14T08:35:56;2.20;;;1.00;;
20721;SDS011;10522;52.198;9.890;2023-03-14T08:38:23;5.73;;;1.00;;
20721;SDS011;10522;52.198;9.890;2023-03-14T08:40:59;2.17;;;0.87;;
20721;SDS011;10522;52.198;9.890;2023-03-14T08:43:26;4.00;;;0.90;;
20721;SDS011;10522;52.198;9.890;2023-03-14T08:45:53;2.57;;;0.80;;
20721;SDS011;10522;52.198;9.890;2023-03-14T08:48:22;2.77;;;1.00;;
20721;SDS011;10522;52.198;9.890;2023-03-14T08:50:47;5.53;;;0.80;;
20721;SDS011;10522;52.198;9.890;2023-03-14T08:53:13;5.33;;;1.00;;
20721;SDS011;10522;52.198;9.890;2023-03-14T08:55:39;2.27;;;0.90;;
20721;SDS011;10522;52.198;9.890;2023-03-14T08:58:04;3.37;;;0.80;;
20721;SDS011;10522;52.198;9.890;2023-03-14T09:00:30;2.77;;;0.90;;
20721;SDS011;10522;52.198;9.890;2023-03-14T09:02:56;3.60;;;0.80;;
20721;SDS011;10522;52.198;9.890;2023-03-14T09:05:21;1.13;;;0.77;;
20721;SDS011;10522;52.198;9.890;2023-03-14T09:07:47;2.53;;;0.93;;
20721;SDS011;10522;52.198;9.890;2023-03-14T09:10:12;1.40;;;0.97;;
20721;SDS011;10522;52.198;9.890;2023-03-14T09:12:38;3.60;;;1.03;;
20721;SDS011;10522;52.198;9.890;2023-03-14T09:15:04;3.63;;;1.00;;
20721;SDS011;10522;52.198;9.890;2023-03-14T09:17:30;4.33;;;0.83;;
20721;SDS011;10522;52.198;9.890;2023-03-14T09:19:55;1.57;;;0.50;;
20721;SDS011;10522;52.198;9.890;2023-03-14T09:22:22;1.07;;;0.63;;
20721;SDS011;10522;52.198;9.890;2023-03-14T09:24:47;1.10;;;0.70;;
20721;SDS011;10522;52.198;9.890;2023-03-14T09:27:13;1.13;;;0.70;;
20721;SDS011;10522;52.198;9.890;2023-03-14T09:29:38;4.43;;;0.80;;
20721;SDS011;10522;52.198;9.890;2023-03-14T09:32:04;0.97;;;0.70;;
20721;SDS011;10522;52.198;9.890;2023-03-14T09:34:30;2.70;;;0.60;;
20721;SDS011;10522;52.198;9.890;2023-03-14T09:36:55;1.30;;;0.60;;
20721;SDS011;10522;52.198;9.890;2023-03-14T09:39:22;0.97;;;0.50;;
20721;SDS011;10522;52.198;9.890;2023-03-14T09:41:48;1.33;;;0.50;;
20721;SDS011;10522;52.198;9.890;2023-03-14T09:44:24;1.13;;;0.47;;
20721;SDS011;10522;52.198;9.890;2023-03-14T09:46:53;0.93;;;0.40;;
20721;SDS011;10522;52.198;9.890;2023-03-14T09:49:32;2.73;;;0.70;;
20721;SDS011;10522;52.198;9.890;2023-03-14T09:52:00;2.90;;;0.83;;
20721;SDS011;10522;52.198;9.890;2023-03-14T09:57:06;0.57;;;0.50;;
20721;SDS011;10522;52.198;9.890;2023-03-14T09:59:41;0.60;;;0.50;;
20721;SDS011;10522;52.198;9.890;2023-03-14T10:02:24;0.57;;;0.50;;
20721;SDS011;10522;52.198;9.890;2023-03-14T10:04:53;0.97;;;0.30;;
20721;SDS011;10522;52.198;9.890;2023-03-14T10:07:29;0.70;;;0.40;;
20721;SDS011;10522;52.198;9.890;2023-03-14T10:09:56;1.60;;;0.40;;
20721;SDS011;10522;52.198;9.890;2023-03-14T10:12:33;0.93;;;0.50;;
20721;SDS011;10522;52.198;9.890;2023-03-14T10:15:04;1.93;;;0.60;;
20721;SDS011;10522;52.198;9.890;2023-03-14T10:17:49;1.93;;;0.57;;
20721;SDS011;10522;52.198;9.890;2023-03-14T10:20:27;0.80;;;0.60;;
20721;SDS011;10522;52.198;9.890;2023-03-14T10:22:57;0.53;;;0.40;;
20721;SDS011;10522;52.198;9.890;2023-03-14T10:25:31;0.60;;;0.60;;
20721;SDS011;10522;52.198;9.890;2023-03-14T10:28:02;3.30;;;0.90;;
20721;SDS011;10522;52.198;9.890;2023-03-14T10:30:30;1.13;;;0.60;;
20721;SDS011;10522;52.198;9.890;2023-03-14T10:33:19;0.77;;;0.53;;
20721;SDS011;10522;52.198;9.890;2023-03-14T10:35:52;0.30;;;0.30;;
20721;SDS011;10522;52.198;9.890;2023-03-14T10:38:23;1.67;;;0.50;;
20721;SDS011;10522;52.198;9.890;2023-03-14T10:40:51;1.90;;;0.50;;
20721;SDS011;10522;52.198;9.890;2023-03-14T10:43:21;0.63;;;0.50;;
20721;SDS011;10522;52.198;9.890;2023-03-14T10:45:52;0.63;;;0.50;;
20721;SDS011;10522;52.198;9.890;2023-03-14T10:53:39;0.43;;;0.40;;
20721;SDS011;10522;52.198;9.890;2023-03-14T10:56:10;0.30;;;0.30;;
20721;SDS011;10522;52.198;9.890;2023-03-14T10:58:44;0.50;;;0.47;;
20721;SDS011;10522;52.198;9.890;2023-03-14T11:03:57;0.53;;;0.40;;
20721;SDS011;10522;52.198;9.890;2023-03-14T11:06:50;1.40;;;0.60;;
20721;SDS011;10522;52.198;9.890;2023-03-14T11:09:44;0.57;;;0.57;;
20721;SDS011;10522;52.198;9.890;2023-03-14T11:12:34;0.37;;;0.37;;
20721;SDS011;10522;52.198;9.890;2023-03-14T11:15:25;0.37;;;0.37;;
20721;SDS011;10522;52.198;9.890;2023-03-14T11:24:00;1.87;;;0.50;;
20721;SDS011;10522;52.198;9.890;2023-03-14T11:26:51;0.33;;;0.33;;
20721;SDS011;10522;52.198;9.890;2023-03-14T11:34:59;1.43;;;0.40;;
20721;SDS011;10522;52.198;9.890;2023-03-14T11:37:34;0.40;;;0.40;;
20721;SDS011;10522;52.198;9.890;2023-03-14T11:40:13;0.70;;;0.60;;
20721;SDS011;10522;52.198;9.890;2023-03-14T11:42:39;11.07;;;0.93;;
20721;SDS011;10522;52.198;9.890;2023-03-14T11:45:16;1.03;;;0.70;;
20721;SDS011;10522;52.198;9.890;2023-03-14T11:47:44;4.80;;;1.23;;
20721;SDS011;10522;52.198;9.890;2023-03-14T11:50:17;3.13;;;1.13;;
20721;SDS011;10522;52.198;9.890;2023-03-14T11:55:24;0.67;;;0.43;;
20721;SDS011;10522;52.198;9.890;2023-03-14T12:00:48;2.10;;;0.90;;
20721;SDS011;10522;52.198;9.890;2023-03-14T12:08:52;1.17;;;0.53;;
20721;SDS011;10522;52.198;9.890;2023-03-14T12:14:23;0.80;;;0.80;;
20721;SDS011;10522;52.198;9.890;2023-03-14T12:19:46;1.23;;;0.97;;
20721;SDS011;10522;52.198;9.890;2023-03-14T12:22:26;1.17;;;1.07;;
20721;SDS011;10522;52.198;9.890;2023-03-14T12:24:55;3.17;;;1.57;;
20721;SDS011;10522;52.198;9.890;2023-03-14T12:30:04;0.80;;;0.70;;
20721;SDS011;10522;52.198;9.890;2023-03-14T12:35:45;0.73;;;0.40;;
20721;SDS011;10522;52.198;9.890;2023-03-14T12:43:28;0.60;;;0.40;;
20721;SDS011;10522;52.198;9.890;2023-03-14T12:46:14;1.87;;;0.50;;
20721;SDS011;10522;52.198;9.890;2023-03-14T12:48:43;0.30;;;0.30;;
20721;SDS011;10522;52.198;9.890;2023-03-14T12:51:27;1.60;;;0.60;;
20721;SDS011;10522;52.198;9.890;2023-03-14T12:56:58;0.60;;;0.40;;
20721;SDS011;10522;52.198;9.890;2023-03-14T12:59:51;0.37;;;0.37;;
20721;SDS011;10522;52.198;9.890;2023-03-14T13:02:23;0.30;;;0.30;;
20721;SDS011;10522;52.198;9.890;2023-03-14T13:04:53;0.63;;;0.40;;
20721;SDS011;10522;52.198;9.890;2023-03-14T13:15:17;0.53;;;0.40;;
20721;SDS011;10522;52.198;9.890;2023-03-14T13:17:47;1.73;;;0.57;;
20721;SDS011;10522;52.198;9.890;2023-03-14T13:20:34;1.60;;;1.27;;
20721;SDS011;10522;52.198;9.890;2023-03-14T13:23:02;2.03;;;1.43;;
20721;SDS011;10522;52.198;9.890;2023-03-14T13:25:29;4.67;;;0.80;;
20721;SDS011;10522;52.198;9.890;2023-03-14T13:28:00;7.17;;;1.00;;
20721;SDS011;10522;52.198;9.890;2023-03-14T13:30:38;1.53;;;0.77;;
20721;SDS011;10522;52.198;9.890;2023-03-14T13:33:06;4.70;;;1.23;;
20721;SDS011;10522;52.198;9.890;2023-03-14T13:35:39;3.07;;;0.77;;
20721;SDS011;10522;52.198;9.890;2023-03-14T13:38:17;6.73;;;1.90;;
20721;SDS011;10522;52.198;9.890;2023-03-14T13:40:45;5.73;;;1.43;;
20721;SDS011;10522;52.198;9.890;2023-03-14T13:46:12;4.20;;;1.43;;
20721;SDS011;10522;52.198;9.890;2023-03-14T13:48:41;4.13;;;1.30;;
20721;SDS011;10522;52.198;9.890;2023-03-14T13:51:13;19.53;;;2.63;;
20721;SDS011;10522;52.198;9.890;2023-03-14T13:53:45;6.70;;;1.27;;
20721;SDS011;10522;52.198;9.890;2023-03-14T13:56:11;13.57;;;1.47;;
20721;SDS011;10522;52.198;9.890;2023-03-14T13:58:38;3.77;;;0.97;;
20721;SDS011;10522;52.198;9.890;2023-03-14T14:03:39;5.87;;;1.13;;
20721;SDS011;10522;52.198;9.890;2023-03-14T14:06:50;2.40;;;1.00;;
20721;SDS011;10522;52.198;9.890;2023-03-14T14:08:56;6.27;;;1.67;;
20721;SDS011;10522;52.198;9.890;2023-03-14T14:11:41;5.53;;;1.07;;
20721;SDS011;10522;52.198;9.890;2023-03-14T14:14:14;3.43;;;0.83;;
20721;SDS011;10522;52.198;9.890;2023-03-14T14:16:54;10.03;;;1.40;;
20721;SDS011;10522;52.198;9.890;2023-03-14T14:19:21;4.63;;;1.33;;
20721;SDS011;10522;52.198;9.890;2023-03-14T14:21:48;7.10;;;1.07;;
20721;SDS011;10522;52.198;9.890;2023-03-14T14:24:15;11.73;;;2.03;;
20721;SDS011;10522;52.198;9.890;2023-03-14T14:26:46;7.03;;;1.90;;
20721;SDS011;10522;52.198;9.890;2023-03-14T14:29:29;10.90;;;1.70;;
20721;SDS011;10522;52.198;9.890;2023-03-14T14:32:03;4.70;;;1.37;;
20721;SDS011;10522;52.198;9.890;2023-03-14T14:34:41;5.57;;;2.03;;
20721;SDS011;10522;52.198;9.890;2023-03-14T14:40:07;7.17;;;2.00;;
20721;SDS011;10522;52.198;9.890;2023-03-14T14:42:35;13.47;;;2.53;;
20721;SDS011;10522;52.198;9.890;2023-03-14T14:45:05;11.67;;;2.40;;
20721;SDS011;10522;52.198;9.890;2023-03-14T14:47:47;10.73;;;2.17;;
20721;SDS011;10522;52.198;9.890;2023-03-14T14:52:59;10.20;;;3.30;;
20721;SDS011;10522;52.198;9.890;2023-03-14T14:55:33;4.87;;;1.67;;
20721;SDS011;10522;52.198;9.890;2023-03-14T14:58:16;8.93;;;1.93;;
20721;SDS011;10522;52.198;9.890;2023-03-14T15:00:55;12.27;;;1.97;;
20721;SDS011;10522;52.198;9.890;2023-03-14T15:03:26;11.60;;;2.73;;
20721;SDS011;10522;52.198;9.890;2023-03-14T15:05:54;7.33;;;1.37;;
20721;SDS011;10522;52.198;9.890;2023-03-14T15:08:20;9.37;;;1.80;;
20721;SDS011;10522;52.198;9.890;2023-03-14T15:10:46;9.07;;;1.70;;
20721;SDS011;10522;52.198;9.890;2023-03-14T15:13:12;11.77;;;2.60;;
20721;SDS011;10522;52.198;9.890;2023-03-14T15:15:37;10.53;;;3.33;;
20721;SDS011;10522;52.198;9.890;2023-03-14T15:18:08;5.07;;;1.80;;
20721;SDS011;10522;52.198;9.890;2023-03-14T15:20:38;11.50;;;2.77;;
20721;SDS011;10522;52.198;9.890;2023-03-14T15:23:07;12.53;;;2.03;;
20721;SDS011;10522;52.198;9.890;2023-03-14T15:25:38;7.77;;;2.00;;
20721;SDS011;10522;52.198;9.890;2023-03-14T15:28:17;11.40;;;1.87;;
20721;SDS011;10522;52.198;9.890;2023-03-14T15:30:46;9.50;;;3.10;;
20721;SDS011;10522;52.198;9.890;2023-03-14T15:33:13;7.40;;;1.60;;
20721;SDS011;10522;52.198;9.890;2023-03-14T15:35:39;3.93;;;1.17;;
20721;SDS011;10522;52.198;9.890;2023-03-14T15:38:09;8.67;;;1.73;;
20721;SDS011;10522;52.198;9.890;2023-03-14T15:40:39;4.90;;;1.10;;
20721;SDS011;10522;52.198;9.890;2023-03-14T15:43:06;12.20;;;2.83;;
20721;SDS011;10522;52.198;9.890;2023-03-14T15:45:31;6.20;;;1.30;;
20721;SDS011;10522;52.198;9.890;2023-03-14T15:47:57;14.17;;;1.77;;
20721;SDS011;10522;52.198;9.890;2023-03-14T15:50:23;6.87;;;1.10;;
20721;SDS011;10522;52.198;9.890;2023-03-14T15:52:50;12.13;;;2.07;;
20721;SDS011;10522;52.198;9.890;2023-03-14T15:55:16;8.57;;;2.03;;
20721;SDS011;10522;52.198;9.890;2023-03-14T15:57:42;7.67;;;1.50;;
20721;SDS011;10522;52.198;9.890;2023-03-14T16:00:11;12.60;;;1.63;;
20721;SDS011;10522;52.198;9.890;2023-03-14T16:02:39;6.53;;;1.53;;
20721;SDS011;10522;52.198;9.890;2023-03-14T16:05:07;4.27;;;1.47;;
20721;SDS011;10522;52.198;9.890;2023-03-14T16:07:33;11.07;;;1.50;;
20721;SDS011;10522;52.198;9.890;2023-03-14T16:09:59;14.80;;;2.20;;
20721;SDS011;10522;52.198;9.890;2023-03-14T16:12:24;5.73;;;2.23;;
20721;SDS011;10522;52.198;9.890;2023-03-14T16:14:50;8.33;;;1.57;;
20721;SDS011;10522;52.198;9.890;2023-03-14T16:17:16;6.63;;;1.63;;
20721;SDS011;10522;52.198;9.890;2023-03-14T16:19:41;8.10;;;1.40;;
20721;SDS011;10522;52.198;9.890;2023-03-14T16:22:07;10.00;;;1.87;;